Last 24 Hours

Red Mountain

10 Minute Data | America/Los_Angeles
as of 5/4/26 8:27 PM PDT
Date & Time Temp (°F) Dew Pt (°F) RH (%) Wind Spd (mph) Wind Dir (°) Wind Gust (mph) Wind Gst Dir (°) Daily Max Temp (°F) Daily Min Temp (°F)
5/4/26 - 2020 42.6 42.6 100 12.1 SW | 232 17.7 SW | 233 48.3 38.6
5/4/26 - 2010 42.6 42.6 100 12.8 SW | 234 18.9 SW | 236 48.3 38.6
5/4/26 - 2000 42.6 42.6 100 14.2 WSW | 238 18.3 WSW | 244 48.3 38.6
5/4/26 - 1950 42.6 42.6 100 14.4 WSW | 238 18.6 WSW | 238 48.3 38.6
5/4/26 - 1940 42.8 42.8 100 16.1 WSW | 244 21.5 WSW | 255 48.3 38.6
5/4/26 - 1930 43.0 42.9 100 18.2 WSW | 242 23.1 WSW | 237 48.3 38.6
5/4/26 - 1920 43.2 43.0 99 20.0 WSW | 239 25.6 WSW | 244 48.3 38.6
5/4/26 - 1910 43.4 43.0 98 19.6 WSW | 240 25.9 WSW | 244 48.3 38.6
5/4/26 - 1900 43.7 42.7 96 19.5 WSW | 240 26.2 SW | 226 48.3 38.6
5/4/26 - 1850 43.8 42.5 95 20.4 WSW | 238 27.8 WSW | 245 48.3 38.6
5/4/26 - 1840 44.0 42.4 94 20.1 SW | 236 27.7 WSW | 249 48.3 38.6
5/4/26 - 1830 44.3 42.5 93 21.3 SW | 236 28.1 SW | 230 48.3 38.6
5/4/26 - 1820 45.2 42.0 88 16.0 SW | 235 25.7 WSW | 238 48.3 38.6
5/4/26 - 1810 45.4 41.9 88 14.4 SW | 235 22.9 WSW | 247 48.3 38.6
5/4/26 - 1800 45.8 41.9 86 15.9 SW | 234 22.9 WSW | 239 48.3 38.6
5/4/26 - 1750 45.6 42.1 88 16.4 SW | 236 23.2 SW | 236 48.3 38.6
5/4/26 - 1740 45.8 42.2 87 18.9 WSW | 238 25.1 SW | 231 48.3 38.6
5/4/26 - 1730 46.6 42.0 84 16.5 WSW | 237 26.6 SW | 226 48.3 38.6
5/4/26 - 1720 46.8 41.3 81 13.6 SW | 231 21.4 SW | 227 48.3 38.6
5/4/26 - 1710 46.9 38.5 72 14.2 WSW | 247 22.9 WSW | 255 48.3 38.6
5/4/26 - 1700 46.8 37.3 69 15.8 W | 259 23.1 W | 264 48.3 38.6
5/4/26 - 1650 46.9 37.4 69 17.6 WSW | 254 22.6 WSW | 256 48.3 38.6
5/4/26 - 1640 46.9 37.6 70 15.8 W | 260 22.1 W | 268 48.3 38.6
5/4/26 - 1630 47.0 37.6 70 13.1 W | 263 19.2 W | 277 48.3 38.6
5/4/26 - 1620 46.9 37.5 70 15.6 W | 259 22.9 WSW | 251 48.3 38.6
5/4/26 - 1610 47.0 37.8 70 15.4 W | 260 20.3 WSW | 256 48.3 38.6
5/4/26 - 1600 46.8 38.2 72 11.4 W | 273 17.8 W | 272 48.3 38.6
5/4/26 - 1550 46.5 38.2 73 13.2 W | 271 18.0 W | 267 48.3 38.6
5/4/26 - 1540 46.4 38.3 73 13.5 W | 270 18.7 WNW | 286 48.3 38.6
5/4/26 - 1530 46.5 38.4 73 16.4 WSW | 248 21.5 WSW | 257 48.3 38.6
5/4/26 - 1520 47.0 38.6 72 15.0 WSW | 243 21.6 WSW | 245 48.3 38.6
5/4/26 - 1510 46.9 39.4 75 12.0 WSW | 244 19.9 WSW | 254 48.3 38.6
5/4/26 - 1500 46.4 38.9 75 14.6 WSW | 246 20.3 WSW | 254 48.3 38.6
5/4/26 - 1450 46.7 39.6 76 13.7 WSW | 245 20.8 WSW | 254 48.3 38.6
5/4/26 - 1440 46.2 39.9 79 13.2 WSW | 240 21.0 WSW | 243 48.3 38.6
5/4/26 - 1430 46.0 39.8 79 15.2 WSW | 248 22.6 WSW | 249 48.3 38.6
5/4/26 - 1420 46.8 39.7 76 13.1 WSW | 239 20.2 SW | 226 48.3 38.6
5/4/26 - 1410 47.3 39.7 75 11.4 SW | 234 19.5 WSW | 247 48.3 38.6
5/4/26 - 1400 46.4 39.8 78 14.7 SW | 233 22.1 SW | 228 47.9 38.6
5/4/26 - 1350 46.4 39.9 78 13.9 SW | 233 20.8 SW | 227 47.9 38.6
5/4/26 - 1340 46.2 39.6 78 13.0 SW | 224 20.9 WSW | 239 47.9 38.6
5/4/26 - 1330 46.4 40.1 78 11.5 SW | 234 17.9 SW | 228 47.9 38.6
5/4/26 - 1320 44.7 40.2 84 12.0 SW | 232 16.1 SW | 217 45.7 38.6
5/4/26 - 1310 44.6 40.1 84 13.0 SW | 234 18.3 SW | 224 45.6 38.6
5/4/26 - 1300 44.3 39.2 82 11.3 SW | 235 16.8 SW | 222 45.6 38.6
5/4/26 - 1250 44.6 39.0 80 9.6 SW | 236 14.2 SW | 230 45.6 38.6
5/4/26 - 1240 44.2 39.7 84 11.5 SW | 234 16.7 WSW | 237 45.6 38.6
5/4/26 - 1230 44.0 38.8 82 10.3 SW | 230 15.9 WSW | 237 45.6 38.6
5/4/26 - 1220 44.3 39.0 81 10.1 SW | 233 16.8 SW | 229 45.6 38.6
5/4/26 - 1210 43.4 39.5 86 12.9 SW | 233 19.3 WSW | 248 44.3 38.6
5/4/26 - 1200 43.5 40.0 87 10.7 SW | 232 18.3 SW | 225 44.3 38.6
5/4/26 - 1150 43.5 39.7 86 11.0 SW | 233 17.3 WSW | 239 44.3 38.6
5/4/26 - 1140 43.1 40.1 89 9.5 SW | 228 15.0 WSW | 247 43.8 38.6
5/4/26 - 1130 42.0 40.9 96 12.5 SW | 234 19.6 WSW | 238 42.9 38.6
5/4/26 - 1120 41.9 41.9 100 12.6 SW | 234 18.6 WSW | 237 42.9 38.6
5/4/26 - 1110 41.6 41.6 100 12.3 SW | 235 18.8 WSW | 252 42.9 38.6
5/4/26 - 1100 41.7 41.7 100 9.5 SW | 236 17.5 WSW | 238 42.9 38.6
5/4/26 - 1050 41.3 41.3 100 10.2 SW | 232 16.7 SW | 236 42.4 38.6
5/4/26 - 1040 41.2 41.2 100 11.5 SW | 230 18.0 WSW | 237 41.8 38.6
5/4/26 - 1030 41.1 41.1 100 8.0 SW | 230 14.5 W | 273 41.8 38.6
5/4/26 - 1020 40.6 40.6 100 9.5 SW | 234 15.2 SW | 235 41.8 38.6
5/4/26 - 1010 40.4 40.4 100 9.5 SW | 234 16.2 WSW | 243 41.8 38.6
5/4/26 - 1000 41.0 41.0 100 8.7 SW | 226 14.9 SSW | 206 41.8 38.6
5/4/26 - 0950 40.6 40.6 100 9.5 SW | 227 15.0 SSW | 213 41.4 38.6
5/4/26 - 0940 40.6 40.6 100 8.6 SW | 229 15.0 WSW | 240 41.3 38.6
5/4/26 - 0930 40.5 40.5 100 8.8 SW | 224 15.1 SW | 219 41.1 38.6
5/4/26 - 0920 40.0 40.0 100 8.6 SW | 225 13.8 SW | 236 41.1 38.6
5/4/26 - 0910 39.8 39.8 100 9.8 SW | 234 14.1 SW | 225 41.1 38.6
5/4/26 - 0900 40.3 40.3 100 9.9 SW | 228 15.1 SW | 233 41.1 38.6
5/4/26 - 0850 40.1 40.1 100 6.4 SW | 231 12.9 WSW | 245 41.1 38.6
5/4/26 - 0840 39.9 39.9 100 5.5 SW | 236 9.5 WSW | 245 41.1 38.6
5/4/26 - 0830 39.9 39.9 100 7.4 SW | 235 12.1 SW | 233 41.1 38.6
5/4/26 - 0820 39.7 39.7 100 7.1 SW | 235 12.6 WSW | 248 41.1 38.6
5/4/26 - 0810 39.2 39.2 100 7.0 WSW | 249 9.9 WSW | 257 41.1 38.6
5/4/26 - 0800 39.3 39.3 100 6.6 WSW | 239 10.4 WSW | 249 41.1 38.6
5/4/26 - 0750 39.2 39.2 100 5.9 WSW | 239 9.6 WSW | 251 41.1 38.6
5/4/26 - 0740 39.0 39.0 100 5.0 WSW | 257 7.2 WSW | 251 41.1 38.6
5/4/26 - 0730 39.0 39.0 100 6.4 W | 266 12.1 WNW | 288 41.1 38.6
5/4/26 - 0720 38.8 38.8 100 4.8 W | 260 7.6 WSW | 254 41.1 38.6
5/4/26 - 0710 39.1 39.1 100 6.5 WSW | 253 8.8 WSW | 258 41.1 38.8
5/4/26 - 0700 39.5 39.5 100 8.4 WSW | 258 11.5 W | 262 41.1 39.1
5/4/26 - 0650 40.0 40.0 100 8.7 WSW | 249 12.1 WSW | 250 41.1 39.6
5/4/26 - 0640 40.4 40.4 100 9.0 WSW | 240 13.2 WSW | 240 41.1 39.7
5/4/26 - 0630 40.4 40.4 100 8.5 WSW | 237 14.3 WSW | 240 41.1 39.7
5/4/26 - 0620 40.5 40.5 100 9.5 WSW | 244 13.3 WSW | 243 41.1 39.7
5/4/26 - 0610 40.7 40.7 100 8.5 WSW | 237 13.8 WSW | 242 41.1 39.7
5/4/26 - 0600 40.7 40.7 100 11.5 SW | 236 16.7 WSW | 241 41.1 39.7
5/4/26 - 0550 40.7 40.7 100 9.6 WSW | 242 14.9 SW | 215 41.1 39.7
5/4/26 - 0540 40.8 40.8 100 10.0 SW | 234 14.5 WSW | 238 41.1 39.7
5/4/26 - 0530 40.9 40.9 100 9.0 SW | 233 13.8 WSW | 241 41.1 39.7
5/4/26 - 0520 40.9 40.9 100 9.2 SW | 233 14.6 WSW | 258 41.1 39.7
5/4/26 - 0510 40.8 40.8 100 8.7 WSW | 241 12.1 WSW | 246 41.1 39.7
5/4/26 - 0500 40.7 40.7 100 8.3 WSW | 253 12.2 SW | 225 41.1 39.7
5/4/26 - 0450 40.6 40.6 100 8.8 W | 264 11.3 W | 259 41.1 39.7
5/4/26 - 0440 40.6 40.6 100 10.2 WSW | 251 12.9 WSW | 250 41.1 39.7
5/4/26 - 0430 40.6 40.5 100 10.8 WSW | 252 13.7 WSW | 257 41.1 39.7
5/4/26 - 0420 40.4 40.4 100 10.8 WSW | 251 12.9 WSW | 251 41.1 39.7
5/4/26 - 0410 40.8 40.8 100 9.6 WSW | 244 12.4 SW | 228 41.1 39.7
5/4/26 - 0400 40.6 40.6 100 9.0 WSW | 240 11.2 WSW | 252 41.1 39.7
5/4/26 - 0350 40.4 40.4 100 10.2 WSW | 249 12.2 SW | 223 41.1 39.7
5/4/26 - 0340 40.4 40.3 100 8.9 WSW | 250 11.8 W | 261 41.1 39.7
5/4/26 - 0330 40.1 40.0 100 8.8 WSW | 253 11.0 WSW | 250 41.1 39.7
5/4/26 - 0320 40.0 40.0 100 10.4 W | 259 13.4 W | 259 41.1 39.7
5/4/26 - 0310 40.0 40.0 100 10.8 W | 262 14.5 W | 266 41.1 39.7
5/4/26 - 0300 39.8 39.8 100 11.1 W | 273 14.2 W | 260 41.1 39.7
5/4/26 - 0250 40.1 40.1 100 10.8 WNW | 297 14.8 WNW | 286 41.1 39.7
5/4/26 - 0240 40.4 40.4 100 10.3 WNW | 300 13.0 NW | 310 41.1 40.0
5/4/26 - 0230 40.6 40.6 100 7.3 WNW | 292 9.3 WNW | 297 41.1 40.3
5/4/26 - 0220 40.5 40.5 100 6.1 W | 274 8.0 WNW | 290 41.1 40.3
5/4/26 - 0210 40.6 40.6 100 4.9 W | 260 6.6 WSW | 247 41.1 40.3
5/4/26 - 0200 40.6 40.6 100 6.2 W | 278 8.3 W | 280 41.1 40.3
5/4/26 - 0150 40.5 40.5 100 10.2 W | 260 13.2 W | 264 41.1 40.3
5/4/26 - 0140 40.5 40.5 100 10.6 WSW | 257 14.0 WSW | 258 41.1 40.4
5/4/26 - 0130 40.6 40.6 100 11.5 WSW | 246 14.3 W | 263 41.1 40.4
5/4/26 - 0120 40.5 40.5 100 12.6 WSW | 250 17.5 WSW | 256 41.1 40.4
5/4/26 - 0110 40.9 40.9 100 12.5 WSW | 257 17.8 WSW | 251 41.1 40.4
5/4/26 - 0100 40.9 40.9 100 12.2 WSW | 250 16.4 W | 264 63.9 39.2
5/4/26 - 0050 40.4 40.4 100 8.2 WSW | 242 12.0 WSW | 237 63.9 39.2
5/4/26 - 0040 40.1 40.1 100 12.1 WSW | 252 16.3 WSW | 252 63.9 39.2
5/4/26 - 0030 39.9 39.9 100 13.8 WSW | 253 17.8 WSW | 247 63.9 39.2
5/4/26 - 0020 39.7 39.7 100 11.4 WSW | 252 14.1 WSW | 248 63.9 39.2
5/4/26 - 0010 39.8 39.7 100 10.9 WSW | 250 13.7 WSW | 252 63.9 39.2
5/4/26 - 0000 40.5 40.5 100 11.1 WSW | 244 15.4 WSW | 253 63.9 40.1
5/3/26 - 2350 41.4 41.4 100 11.1 WSW | 238 14.7 WSW | 242 63.9 40.4
5/3/26 - 2340 41.3 41.3 100 9.8 SW | 236 13.7 SW | 233 63.9 40.4
5/3/26 - 2330 41.0 41.0 100 8.8 WSW | 237 11.9 SW | 231 63.9 40.4
5/3/26 - 2320 40.9 40.9 100 7.6 SW | 235 10.4 SW | 228 63.9 40.4
5/3/26 - 2310 40.8 40.8 100 6.6 SW | 236 9.1 SW | 236 63.9 40.4
5/3/26 - 2300 40.8 40.7 100 9.1 SW | 228 11.5 SW | 224 63.9 40.4
5/3/26 - 2250 40.6 40.6 100 12.4 SW | 223 15.7 SW | 224 63.9 40.4
5/3/26 - 2240 40.7 40.6 100 12.0 SW | 228 16.1 SW | 224 63.9 40.4
5/3/26 - 2230 40.6 40.6 100 12.4 SW | 235 16.7 SW | 229 63.9 40.4
5/3/26 - 2220 40.6 40.6 100 14.6 SW | 230 17.9 SW | 228 63.9 40.5
5/3/26 - 2210 40.6 40.6 100 12.7 SW | 233 16.7 SW | 223 63.9 40.6
5/3/26 - 2200 40.7 40.7 100 12.5 SW | 228 17.1 SW | 231 63.9 40.6
5/3/26 - 2150 40.7 40.7 100 12.6 SW | 225 17.3 SW | 217 63.9 40.6
5/3/26 - 2140 40.7 40.7 100 12.1 SW | 222 17.2 SW | 226 63.9 40.6
5/3/26 - 2130 40.7 40.7 100 14.2 SW | 221 18.8 SW | 221 63.9 40.6
5/3/26 - 2120 40.9 40.9 100 14.9 SW | 223 18.6 SW | 215 63.9 40.8
5/3/26 - 2110 41.2 41.2 100 12.9 SW | 222 17.7 SW | 222 63.9 41.0
5/3/26 - 2100 41.4 41.3 100 14.3 SW | 215 18.3 SW | 221 63.9 41.1
5/3/26 - 2050 41.8 41.8 100 14.9 SW | 218 19.3 SW | 224 63.9 41.5
5/3/26 - 2040 42.0 42.0 100 13.2 SSW | 212 16.7 SSW | 210 63.9 41.8
5/3/26 - 2030 42.0 42.0 100 11.7 SW | 218 16.2 SW | 225 63.9 41.8
5/3/26 - 2020 42.0 42.0 100 12.8 SSW | 213 16.0 SW | 227 63.9 41.8
Max 47.3 43.0 100 21.3 - 28.1 - 63.9 41.8
Avg 42.3 40.4 94 11.6 - 16.5 - - -
Min 38.8 37.3 69 4.8 - 6.6 - 41.1 38.6